Time;durP1;ratioP1;P1;durP2;ratioP2;P2;SDS_P1;SDS_P2;PMS_P1;PMS_P2;Temp;Humidity;BMP_temperature;BMP_pressure;BME280_temperature;BME280_humidity;BME280_pressure;Samples;Min_cycle;Max_cycle;Signal;HPM_P1;HPM_P2
2021/05/14 04:02:01;;;;;;;13.90;12.00;;;10.00;99.90;;;;;;5240243;23;20273;-74
2021/05/14 04:04:27;;;;;;;16.52;12.07;;;10.00;99.90;;;;;;4935748;29;20218;-74
2021/05/14 04:06:53;;;;;;;17.35;11.90;;;10.00;99.90;;;;;;4937230;29;20218;-74
2021/05/14 04:09:25;;;;;;;13.70;11.65;;;10.00;99.90;;;;;;4934478;29;20237;-74
2021/05/14 04:14:35;;;;;;;18.45;13.25;;;10.00;99.90;;;;;;4933954;29;20256;-74
2021/05/14 04:17:05;;;;;;;18.30;12.80;;;10.00;99.90;;;;;;4934653;29;20202;-74
2021/05/14 04:19:31;;;;;;;19.98;12.95;;;10.00;99.90;;;;;;4933932;29;20210;-74
2021/05/14 04:21:59;;;;;;;16.08;13.13;;;10.00;99.90;;;;;;4934794;29;20242;-74
2021/05/14 04:24:27;;;;;;;21.42;12.90;;;9.90;99.90;;;;;;4936343;29;20268;-74
2021/05/14 04:26:54;;;;;;;27.95;15.25;;;10.00;99.90;;;;;;4939015;29;20209;-74
2021/05/14 04:29:21;;;;;;;24.08;14.80;;;10.00;99.90;;;;;;4937578;29;20209;-74
2021/05/14 04:31:47;;;;;;;27.05;15.73;;;10.00;99.90;;;;;;4938948;29;20236;-73
2021/05/14 04:34:21;;;;;;;25.75;16.20;;;10.00;99.90;;;;;;4938724;29;20745;-72
2021/05/14 04:36:47;;;;;;;22.50;14.88;;;10.00;99.90;;;;;;4939512;29;20205;-73
2021/05/14 04:39:14;;;;;;;18.52;13.85;;;10.00;99.90;;;;;;4937913;29;20206;-74
2021/05/14 04:41:40;;;;;;;21.50;14.05;;;10.00;99.90;;;;;;4938832;29;20234;-76
2021/05/14 04:44:07;;;;;;;23.60;13.95;;;10.00;99.90;;;;;;4937288;29;20210;-75
2021/05/14 04:46:34;;;;;;;19.08;14.35;;;10.00;99.90;;;;;;4938669;29;20302;-75
2021/05/14 04:49:00;;;;;;;17.80;13.77;;;10.00;99.90;;;;;;4938032;29;20647;-76
2021/05/14 04:51:29;;;;;;;20.77;13.40;;;10.00;99.90;;;;;;4920568;29;20254;-76
2021/05/14 04:53:56;;;;;;;19.83;12.70;;;10.00;99.90;;;;;;4937513;29;20230;-77
2021/05/14 04:56:22;;;;;;;16.77;13.15;;;10.00;99.90;;;;;;4937291;29;20249;-75
2021/05/14 04:58:48;;;;;;;16.15;12.18;;;10.00;99.90;;;;;;4938372;29;20519;-75
2021/05/14 05:01:16;;;;;;;19.98;13.13;;;10.00;99.90;;;;;;4937144;29;20235;-75
2021/05/14 05:03:45;;;;;;;22.17;13.85;;;10.00;99.90;;;;;;4938089;29;20233;-73
2021/05/14 05:06:12;;;;;;;16.73;12.68;;;10.00;99.90;;;;;;4937127;29;20202;-73
2021/05/14 05:08:39;;;;;;;17.50;12.35;;;10.00;99.90;;;;;;4938220;29;20206;-76
2021/05/14 05:11:06;;;;;;;16.25;13.13;;;10.00;99.90;;;;;;4939269;29;20225;-75
2021/05/14 05:13:33;;;;;;;21.13;12.75;;;10.00;99.90;;;;;;4939073;29;20210;-76
2021/05/14 05:16:00;;;;;;;17.67;11.15;;;10.00;99.90;;;;;;4937879;29;20639;-76
2021/05/14 05:18:26;;;;;;;14.77;11.60;;;10.00;99.90;;;;;;4938045;29;20202;-76
2021/05/14 05:20:52;;;;;;;18.88;14.40;;;10.00;99.90;;;;;;4936631;29;20709;-75
2021/05/14 05:23:18;;;;;;;15.73;12.50;;;10.00;99.90;;;;;;4937264;29;20197;-75
2021/05/14 05:25:45;;;;;;;17.13;13.35;;;9.90;99.90;;;;;;4937374;29;20282;-76
2021/05/14 05:28:11;;;;;;;16.83;11.88;;;9.90;99.90;;;;;;4937605;29;20245;-75
2021/05/14 05:30:38;;;;;;;16.05;12.73;;;9.90;99.90;;;;;;4937142;29;20632;-75
2021/05/14 05:33:04;;;;;;;13.82;11.25;;;9.90;99.90;;;;;;4933978;29;20510;-76
2021/05/14 05:35:30;;;;;;;18.42;12.82;;;9.90;99.90;;;;;;4922462;29;20203;-75
2021/05/14 05:37:57;;;;;;;15.43;11.27;;;9.80;99.90;;;;;;4936645;29;20629;-76
2021/05/14 05:40:23;;;;;;;16.20;12.35;;;9.80;99.90;;;;;;4937253;29;20209;-76
2021/05/14 05:42:50;;;;;;;18.63;12.68;;;9.80;99.90;;;;;;4919993;29;20226;-75
2021/05/14 05:45:16;;;;;;;18.20;12.35;;;9.80;99.90;;;;;;4921622;29;20214;-75
2021/05/14 05:47:42;;;;;;;18.58;11.73;;;9.80;99.90;;;;;;4932731;29;20257;-74
2021/05/14 05:50:09;;;;;;;15.95;11.75;;;9.70;99.90;;;;;;4932252;29;20217;-74
2021/05/14 05:52:35;;;;;;;17.67;12.90;;;9.70;99.90;;;;;;4936915;29;20225;-73
2021/05/14 05:55:01;;;;;;;19.00;12.32;;;9.60;99.90;;;;;;4936204;29;20198;-73
2021/05/14 05:57:27;;;;;;;16.45;12.40;;;9.60;99.90;;;;;;4938270;29;20220;-73
2021/05/14 05:59:54;;;;;;;16.67;12.65;;;9.60;99.90;;;;;;4924239;29;20218;-73
2021/05/14 06:02:21;;;;;;;23.02;13.98;;;9.60;99.90;;;;;;4921494;29;20234;-73
2021/05/14 06:04:47;;;;;;;22.05;12.02;;;9.60;99.90;;;;;;4932987;29;20210;-73
2021/05/14 06:07:13;;;;;;;18.60;12.85;;;9.60;99.90;;;;;;4936995;29;20213;-73
2021/05/14 06:09:39;;;;;;;19.60;13.35;;;9.60;99.90;;;;;;4931968;29;20233;-73
2021/05/14 06:12:06;;;;;;;18.52;12.40;;;9.60;99.90;;;;;;4936663;29;20233;-74
2021/05/14 06:14:32;;;;;;;17.65;13.52;;;9.60;99.90;;;;;;4935258;29;20205;-73
2021/05/14 06:16:59;;;;;;;16.88;13.93;;;9.60;99.90;;;;;;4935563;29;20221;-73
2021/05/14 06:19:28;;;;;;;23.67;13.32;;;9.60;99.90;;;;;;4928464;29;20216;-73
2021/05/14 06:21:54;;;;;;;19.85;14.75;;;9.60;99.90;;;;;;4935266;29;20230;-73
2021/05/14 06:24:21;;;;;;;18.08;13.77;;;9.60;99.90;;;;;;4935225;29;20583;-73
2021/05/14 06:26:48;;;;;;;17.73;13.25;;;9.60;99.90;;;;;;4930399;29;20224;-73
2021/05/14 06:29:15;;;;;;;15.18;12.40;;;9.60;99.90;;;;;;4935824;29;20206;-73
2021/05/14 06:31:42;;;;;;;19.88;14.20;;;9.60;99.90;;;;;;4936965;29;20308;-74
2021/05/14 06:34:09;;;;;;;20.30;14.60;;;9.60;99.90;;;;;;4935211;29;20280;-73
2021/05/14 06:36:36;;;;;;;18.92;12.98;;;9.60;99.90;;;;;;4933305;29;20210;-73
2021/05/14 06:39:03;;;;;;;16.35;13.10;;;9.60;99.90;;;;;;4923290;29;20206;-73
2021/05/14 06:41:29;;;;;;;17.00;13.55;;;9.60;99.90;;;;;;4934528;29;20222;-73
2021/05/14 06:43:57;;;;;;;18.65;13.75;;;9.60;99.90;;;;;;4936716;29;20221;-73
2021/05/14 06:46:23;;;;;;;26.15;14.10;;;9.60;99.90;;;;;;4936482;29;20330;-73
2021/05/14 06:48:49;;;;;;;20.80;13.27;;;9.60;99.90;;;;;;4937062;29;20212;-73
2021/05/14 06:51:16;;;;;;;18.27;12.77;;;9.60;99.90;;;;;;4934508;29;20687;-71
2021/05/14 06:53:42;;;;;;;19.05;12.25;;;9.60;99.90;;;;;;4937496;29;20206;-73
2021/05/14 06:56:09;;;;;;;20.50;12.73;;;9.60;99.90;;;;;;4939955;29;20670;-73
2021/05/14 06:58:35;;;;;;;18.95;13.88;;;9.60;99.90;;;;;;4941428;29;20607;-72
2021/05/14 07:01:02;;;;;;;20.08;12.45;;;9.60;99.90;;;;;;4936898;29;20284;-72
2021/05/14 07:03:30;;;;;;;22.60;11.95;;;9.60;99.90;;;;;;4941805;29;20210;-72
2021/05/14 07:05:57;;;;;;;21.05;13.13;;;9.60;99.90;;;;;;4932759;29;20233;-72
2021/05/14 07:08:24;;;;;;;22.85;13.98;;;9.60;99.90;;;;;;4939436;29;20233;-72
2021/05/14 07:10:50;;;;;;;19.60;13.63;;;9.60;99.90;;;;;;4944299;29;20237;-71
2021/05/14 07:13:16;;;;;;;22.10;12.07;;;9.50;99.90;;;;;;4943555;29;20588;-72
2021/05/14 07:15:42;;;;;;;20.67;13.55;;;9.60;99.90;;;;;;4938416;29;20215;-71
2021/05/14 07:18:08;;;;;;;18.08;11.82;;;9.60;99.90;;;;;;4921745;29;20201;-71
2021/05/14 07:20:36;;;;;;;16.73;12.10;;;9.60;99.90;;;;;;4935389;29;20230;-71
2021/05/14 07:23:02;;;;;;;18.42;12.55;;;9.60;99.90;;;;;;4926977;29;20222;-71
2021/05/14 07:25:29;;;;;;;23.20;14.00;;;9.60;99.90;;;;;;4920003;29;20230;-71
2021/05/14 07:27:57;;;;;;;20.85;13.88;;;9.60;99.90;;;;;;4936227;29;20281;-73
2021/05/14 07:30:23;;;;;;;15.45;11.70;;;9.60;99.90;;;;;;4935039;29;20206;-71
2021/05/14 07:32:49;;;;;;;16.73;11.52;;;9.60;99.90;;;;;;4932071;29;20600;-73
2021/05/14 07:35:15;;;;;;;20.00;12.45;;;9.60;99.90;;;;;;4924295;29;20565;-72
2021/05/14 07:37:41;;;;;;;17.45;12.52;;;9.50;99.90;;;;;;4929550;29;20213;-73
2021/05/14 07:40:09;;;;;;;20.00;12.02;;;9.50;99.90;;;;;;4922387;29;20207;-73
2021/05/14 07:42:36;;;;;;;24.10;12.73;;;9.50;99.90;;;;;;4934928;29;20226;-73
2021/05/14 07:45:03;;;;;;;15.90;12.35;;;9.60;99.90;;;;;;4935328;29;20355;-71
2021/05/14 07:47:29;;;;;;;16.83;11.02;;;9.60;99.90;;;;;;4934695;29;20209;-71
2021/05/14 07:49:55;;;;;;;22.60;11.65;;;9.60;99.90;;;;;;4935012;29;20213;-72
2021/05/14 07:52:22;;;;;;;20.83;10.95;;;9.60;99.90;;;;;;4932565;29;20226;-72
2021/05/14 07:54:48;;;;;;;22.00;11.35;;;9.60;99.90;;;;;;4934672;29;20217;-72
2021/05/14 07:57:14;;;;;;;17.15;10.38;;;9.60;99.90;;;;;;4919430;29;20254;-71
2021/05/14 07:59:41;;;;;;;18.05;10.70;;;9.60;99.90;;;;;;4915838;29;20247;-72
2021/05/14 08:02:07;;;;;;;20.70;12.57;;;9.60;99.90;;;;;;4929319;29;20291;-71
2021/05/14 08:04:33;;;;;;;16.90;11.80;;;9.60;99.90;;;;;;4935347;29;20618;-72
2021/05/14 08:07:00;;;;;;;19.05;11.30;;;9.60;99.90;;;;;;4922469;29;20211;-72
2021/05/14 08:09:26;;;;;;;12.63;11.00;;;9.60;99.90;;;;;;4929466;29;20304;-72
2021/05/14 08:11:52;;;;;;;19.55;11.90;;;9.60;99.90;;;;;;4923939;29;20218;-72
2021/05/14 08:14:19;;;;;;;23.00;10.68;;;9.50;99.90;;;;;;4929224;29;20268;-72
2021/05/14 08:16:47;;;;;;;15.60;11.35;;;9.50;99.90;;;;;;4924139;29;20274;-74
2021/05/14 08:19:13;;;;;;;20.67;10.88;;;9.50;99.90;;;;;;4916147;29;20219;-72
2021/05/14 08:21:40;;;;;;;20.48;11.65;;;9.50;99.90;;;;;;4928045;29;20573;-73
2021/05/14 08:24:09;;;;;;;18.15;11.05;;;9.50;99.90;;;;;;4933505;29;20237;-72
2021/05/14 08:26:35;;;;;;;20.80;11.30;;;9.50;99.90;;;;;;4922356;29;20207;-73
2021/05/14 08:29:01;;;;;;;19.35;11.82;;;9.50;99.90;;;;;;4921201;29;20207;-73
2021/05/14 08:31:28;;;;;;;20.95;11.25;;;9.50;99.90;;;;;;4934880;29;20230;-73
2021/05/14 08:33:55;;;;;;;16.75;10.90;;;9.50;99.90;;;;;;4933470;29;20206;-74
2021/05/14 08:36:22;;;;;;;22.63;11.32;;;9.50;99.90;;;;;;4934306;29;20685;-73
2021/05/14 08:38:48;;;;;;;19.95;12.63;;;9.40;99.90;;;;;;4930040;29;20210;-73
2021/05/14 08:41:14;;;;;;;18.98;11.25;;;9.50;99.90;;;;;;4933834;29;20225;-73
2021/05/14 08:43:41;;;;;;;12.95;10.32;;;9.40;99.90;;;;;;4934047;29;20570;-73
2021/05/14 08:46:12;;;;;;;20.88;12.25;;;9.50;99.90;;;;;;4934068;29;20213;-73
2021/05/14 08:48:40;;;;;;;23.17;12.55;;;9.40;99.90;;;;;;4934437;29;20206;-73
2021/05/14 08:51:09;;;;;;;19.60;13.07;;;9.40;99.90;;;;;;4933240;29;20230;-74
2021/05/14 08:53:35;;;;;;;18.88;12.32;;;9.50;99.90;;;;;;4932983;29;20203;-73
2021/05/14 08:56:02;;;;;;;17.23;13.05;;;9.50;99.90;;;;;;4934512;29;20261;-73
2021/05/14 08:58:28;;;;;;;17.35;11.90;;;9.50;99.90;;;;;;4932038;29;20206;-73
2021/05/14 09:00:54;;;;;;;18.48;12.30;;;9.50;99.90;;;;;;4933590;29;20233;-73
2021/05/14 09:03:21;;;;;;;15.75;11.13;;;9.40;99.90;;;;;;4933171;29;20308;-73
2021/05/14 09:05:48;;;;;;;16.58;12.68;;;9.40;99.90;;;;;;4933750;29;20209;-73
2021/05/14 09:08:26;;;;;;;17.42;10.88;;;9.40;99.90;;;;;;4933171;29;20244;-73
2021/05/14 09:10:52;;;;;;;15.13;11.35;;;9.40;99.90;;;;;;4935720;29;20618;-74
2021/05/14 09:13:18;;;;;;;12.95;10.50;;;9.40;99.90;;;;;;4933780;29;20371;-73
2021/05/14 09:15:45;;;;;;;10.48;9.30;;;9.30;99.90;;;;;;4931079;29;20217;-73
2021/05/14 09:18:13;;;;;;;13.52;12.18;;;9.40;99.90;;;;;;4931042;29;20623;-73
2021/05/14 09:20:41;;;;;;;13.52;9.73;;;9.40;99.90;;;;;;4934604;29;20229;-73
2021/05/14 09:23:24;;;;;;;13.00;11.00;;;9.40;99.90;;;;;;4936426;29;20309;-73
2021/05/14 09:25:51;;;;;;;15.27;10.35;;;9.40;99.90;;;;;;4935138;29;20225;-74
2021/05/14 09:28:22;;;;;;;13.68;10.10;;;9.40;99.90;;;;;;4937869;29;20217;-73
2021/05/14 09:31:17;;;;;;;17.60;11.10;;;9.40;99.90;;;;;;4932064;29;20586;-72
2021/05/14 09:33:45;;;;;;;14.32;9.40;;;9.40;99.90;;;;;;4936437;29;20230;-72
2021/05/14 09:36:13;;;;;;;16.60;11.75;;;9.40;99.90;;;;;;4936268;29;20206;-72
2021/05/14 09:38:48;;;;;;;15.50;9.80;;;9.40;99.90;;;;;;4935436;29;20602;-72
2021/05/14 09:41:33;;;;;;;18.00;11.43;;;9.50;99.90;;;;;;4931173;29;20232;-72
2021/05/14 09:44:05;;;;;;;14.65;9.75;;;9.50;99.90;;;;;;4936105;29;20209;-72
2021/05/14 09:46:34;;;;;;;10.95;9.25;;;9.50;99.90;;;;;;4925855;29;20202;-72
2021/05/14 09:49:01;;;;;;;13.07;9.73;;;9.50;99.90;;;;;;4933948;29;20206;-72
2021/05/14 09:51:28;;;;;;;11.60;9.35;;;9.50;99.90;;;;;;4923307;28;20695;-72
2021/05/14 09:53:56;;;;;;;16.17;10.73;;;9.50;99.90;;;;;;4917555;29;20210;-72
2021/05/14 09:56:28;;;;;;;16.58;11.10;;;9.50;99.90;;;;;;4928979;29;20537;-72
2021/05/14 09:58:56;;;;;;;13.32;9.93;;;9.50;99.90;;;;;;4924052;29;20600;-72
2021/05/14 10:01:23;;;;;;;15.73;10.80;;;9.50;99.90;;;;;;4921069;29;20659;-72
2021/05/14 10:03:49;;;;;;;12.93;10.20;;;9.50;99.90;;;;;;4936750;29;20812;-72
2021/05/14 10:06:16;;;;;;;15.45;11.23;;;9.60;99.90;;;;;;4924405;29;20221;-72
2021/05/14 10:08:48;;;;;;;18.20;10.70;;;9.60;99.90;;;;;;4936046;29;20309;-72
2021/05/14 10:11:16;;;;;;;14.38;11.05;;;9.60;99.90;;;;;;4935862;29;20229;-72
2021/05/14 10:13:43;;;;;;;17.60;12.85;;;9.60;99.90;;;;;;4936790;29;20205;-72
2021/05/14 10:16:09;;;;;;;14.23;11.48;;;9.60;99.90;;;;;;4922011;29;20210;-72
2021/05/14 10:18:38;;;;;;;15.45;11.38;;;9.60;99.90;;;;;;4917636;29;20203;-72
2021/05/14 10:21:07;;;;;;;21.13;14.77;;;9.60;99.90;;;;;;4926909;29;20218;-72
2021/05/14 10:23:34;;;;;;;19.00;11.95;;;9.60;99.90;;;;;;4918732;29;20334;-72
2021/05/14 10:26:06;;;;;;;16.00;11.43;;;9.60;99.90;;;;;;4925948;29;20202;-72
2021/05/14 10:28:39;;;;;;;18.15;11.27;;;9.60;99.90;;;;;;4931697;29;20214;-72
2021/05/14 10:31:19;;;;;;;14.07;11.25;;;9.60;99.90;;;;;;4918408;29;20289;-72
2021/05/14 10:33:54;;;;;;;14.50;11.13;;;9.60;99.90;;;;;;4935900;29;20225;-71
2021/05/14 10:36:49;;;;;;;16.33;12.00;;;9.60;99.90;;;;;;4934666;29;20209;-71
2021/05/14 10:39:32;;;;;;;15.00;11.40;;;9.60;99.90;;;;;;4935756;29;20210;-71
2021/05/14 10:42:07;;;;;;;15.77;10.98;;;9.60;99.90;;;;;;4920980;29;20576;-72
2021/05/14 10:44:49;;;;;;;17.30;10.73;;;9.60;99.90;;;;;;4916999;29;20202;-71
2021/05/14 10:47:55;;;;;;;19.05;12.50;;;9.60;99.90;;;;;;4917437;29;20214;-72
2021/05/14 10:50:34;;;;;;;13.32;11.52;;;9.60;99.90;;;;;;4916758;29;20214;-72
2021/05/14 10:53:21;;;;;;;13.40;10.85;;;9.60;99.90;;;;;;4916362;29;20223;-72
2021/05/14 10:55:48;;;;;;;20.00;13.20;;;9.60;99.90;;;;;;4917408;29;20253;-73
2021/05/14 10:58:43;;;;;;;15.68;11.85;;;9.70;99.90;;;;;;4916801;29;20214;-72
2021/05/14 11:01:28;;;;;;;22.10;12.45;;;9.70;99.90;;;;;;4916668;29;20245;-72
2021/05/14 11:03:54;;;;;;;11.52;10.32;;;9.70;99.90;;;;;;4916415;29;20214;-73
2021/05/14 11:06:20;;;;;;;16.35;11.20;;;9.70;99.90;;;;;;4916531;29;20206;-72
2021/05/14 11:09:06;;;;;;;14.88;11.43;;;9.70;99.90;;;;;;4915965;29;20214;-72
2021/05/14 11:11:32;;;;;;;10.60;8.52;;;9.70;99.90;;;;;;4927829;29;20222;-72
2021/05/14 11:14:15;;;;;;;10.20;9.15;;;9.70;99.90;;;;;;4925107;29;20213;-71
2021/05/14 11:16:43;;;;;;;15.73;10.65;;;9.60;99.90;;;;;;4921706;29;20635;-71
2021/05/14 11:19:21;;;;;;;14.93;9.57;;;9.60;99.90;;;;;;4928010;29;20261;-71
2021/05/14 11:22:11;;;;;;;11.20;9.93;;;9.60;99.90;;;;;;4934594;29;20244;-72
2021/05/14 11:24:41;;;;;;;13.55;10.38;;;9.60;99.90;;;;;;4929872;29;20257;-71
2021/05/14 11:27:09;;;;;;;13.35;10.82;;;9.60;99.90;;;;;;4932346;29;20584;-71
2021/05/14 11:29:41;;;;;;;14.27;10.75;;;9.60;99.90;;;;;;4932697;29;20550;-71
2021/05/14 11:32:26;;;;;;;14.10;10.30;;;9.60;99.90;;;;;;4929988;29;20698;-71
2021/05/14 11:35:14;;;;;;;21.92;11.30;;;9.60;99.90;;;;;;4934089;29;20216;-71
2021/05/14 11:37:49;;;;;;;15.30;12.07;;;9.70;99.90;;;;;;4927055;29;20206;-71
2021/05/14 11:40:18;;;;;;;17.35;12.85;;;9.70;99.90;;;;;;4925489;29;20209;-71
2021/05/14 11:42:46;;;;;;;15.40;11.93;;;9.70;99.90;;;;;;4930566;29;20226;-71
2021/05/14 11:45:20;;;;;;;20.65;11.32;;;9.80;99.90;;;;;;4930670;29;20214;-71
2021/05/14 11:47:49;;;;;;;15.93;12.50;;;9.80;99.90;;;;;;4929037;29;20210;-71
2021/05/14 11:50:29;;;;;;;16.52;12.40;;;9.90;99.90;;;;;;4920772;29;20218;-70
2021/05/14 11:52:56;;;;;;;18.00;12.20;;;9.80;99.90;;;;;;4918355;29;20194;-71
2021/05/14 11:55:23;;;;;;;24.77;12.57;;;9.90;99.90;;;;;;4929682;29;20206;-71
2021/05/14 11:57:51;;;;;;;15.23;11.93;;;9.90;99.90;;;;;;4925390;29;20665;-71
2021/05/14 12:00:26;;;;;;;13.68;12.15;;;10.00;99.90;;;;;;4933593;29;20210;-72
2021/05/14 12:02:53;;;;;;;14.57;12.52;;;10.00;99.90;;;;;;4933451;29;20237;-69
2021/05/14 12:05:21;;;;;;;17.83;12.63;;;10.00;99.90;;;;;;4933350;29;20650;-72
2021/05/14 12:07:47;;;;;;;16.40;12.25;;;10.10;99.90;;;;;;4931407;29;20209;-71
2021/05/14 12:10:16;;;;;;;13.65;11.68;;;10.10;99.90;;;;;;4930598;29;20241;-71
2021/05/14 12:12:42;;;;;;;17.67;12.48;;;10.10;99.90;;;;;;4931772;29;20198;-71
2021/05/14 12:15:19;;;;;;;16.85;11.88;;;10.10;99.90;;;;;;4934043;29;20206;-71
2021/05/14 12:17:46;;;;;;;15.25;12.57;;;10.20;99.90;;;;;;4934601;29;20212;-70
2021/05/14 12:20:15;;;;;;;15.65;12.07;;;10.10;99.90;;;;;;4933307;29;20209;-70
2021/05/14 12:22:44;;;;;;;16.65;12.48;;;10.10;99.90;;;;;;4933171;29;20226;-70
2021/05/14 12:25:11;;;;;;;19.70;13.40;;;10.20;99.90;;;;;;4927355;29;20210;-69
2021/05/14 12:27:37;;;;;;;17.17;12.20;;;10.20;99.90;;;;;;4934005;29;20246;-70
2021/05/14 12:30:05;;;;;;;18.08;13.50;;;10.20;99.90;;;;;;4933797;29;20224;-70
2021/05/14 12:32:31;;;;;;;15.73;12.02;;;10.20;99.90;;;;;;4933646;29;20205;-70
2021/05/14 12:34:57;;;;;;;19.60;13.30;;;10.30;99.90;;;;;;4932916;29;20213;-70
2021/05/14 12:37:24;;;;;;;14.07;11.80;;;10.30;99.90;;;;;;4933190;29;20209;-69
2021/05/14 12:39:51;;;;;;;15.82;11.80;;;10.30;99.90;;;;;;4933803;29;20206;-71
2021/05/14 12:42:25;;;;;;;12.15;10.95;;;10.30;99.90;;;;;;4933549;29;20634;-71
2021/05/14 12:44:53;;;;;;;14.98;10.70;;;10.30;99.90;;;;;;4934417;29;20220;-71
2021/05/14 12:47:21;;;;;;;13.60;10.95;;;10.30;99.90;;;;;;4938337;29;20201;-71
2021/05/14 12:49:48;;;;;;;16.13;11.60;;;10.30;99.90;;;;;;4938254;29;20202;-72
2021/05/14 12:52:19;;;;;;;14.82;11.48;;;10.40;99.90;;;;;;4937257;29;20288;-71
2021/05/14 12:54:57;;;;;;;14.40;10.43;;;10.40;99.90;;;;;;4937847;29;20206;-73
2021/05/14 12:57:29;;;;;;;11.98;10.70;;;10.40;99.90;;;;;;4941382;29;20531;-73
2021/05/14 12:59:57;;;;;;;16.42;11.13;;;10.40;99.90;;;;;;4938262;29;20206;-73
2021/05/14 13:02:26;;;;;;;16.67;11.00;;;10.40;99.90;;;;;;4937120;29;20237;-73
2021/05/14 13:04:57;;;;;;;11.93;10.35;;;10.40;99.90;;;;;;4937542;29;20689;-74
2021/05/14 13:07:23;;;;;;;12.02;10.73;;;10.40;99.90;;;;;;4938368;29;20216;-72
2021/05/14 13:09:50;;;;;;;13.48;11.30;;;10.40;99.90;;;;;;4932629;29;20199;-72
2021/05/14 13:12:17;;;;;;;12.75;11.32;;;10.40;99.90;;;;;;4936657;29;20245;-73
2021/05/14 13:14:44;;;;;;;14.82;11.07;;;10.40;99.90;;;;;;4936777;29;20213;-72
2021/05/14 13:17:10;;;;;;;11.43;10.23;;;10.40;99.90;;;;;;4938438;29;20222;-72
2021/05/14 13:19:36;;;;;;;14.27;11.30;;;10.40;99.90;;;;;;4935462;29;20510;-73
2021/05/14 13:22:03;;;;;;;14.23;11.75;;;10.40;99.90;;;;;;4931613;29;20222;-71
2021/05/14 13:24:29;;;;;;;18.00;10.93;;;10.50;99.90;;;;;;4937848;29;20214;-72
2021/05/14 13:26:55;;;;;;;12.40;10.60;;;10.50;99.90;;;;;;4935467;29;20232;-72
2021/05/14 13:29:22;;;;;;;18.02;12.15;;;10.50;99.90;;;;;;4937090;29;20221;-71
2021/05/14 13:31:48;;;;;;;16.48;11.52;;;10.60;99.90;;;;;;4937286;29;20248;-73
2021/05/14 13:34:14;;;;;;;11.70;10.50;;;10.60;99.90;;;;;;4936862;29;20210;-73
2021/05/14 13:36:40;;;;;;;14.63;11.00;;;10.60;99.90;;;;;;4936867;29;20217;-73
2021/05/14 13:39:07;;;;;;;13.52;10.98;;;10.60;99.90;;;;;;4937118;29;20692;-72
2021/05/14 13:41:33;;;;;;;14.00;11.15;;;10.70;99.90;;;;;;4937105;29;20245;-73
2021/05/14 13:44:01;;;;;;;15.27;10.55;;;10.70;99.90;;;;;;4937813;29;20733;-73
2021/05/14 13:46:29;;;;;;;15.60;10.32;;;10.70;99.90;;;;;;4939601;29;20210;-73
2021/05/14 13:48:55;;;;;;;12.60;10.57;;;10.60;99.90;;;;;;4940621;29;20206;-73
2021/05/14 13:51:21;;;;;;;12.00;9.98;;;10.60;99.90;;;;;;4940887;29;20222;-74
2021/05/14 13:53:48;;;;;;;12.38;9.93;;;10.70;99.90;;;;;;4935275;29;20757;-74
2021/05/14 13:56:14;;;;;;;15.95;11.93;;;10.70;99.90;;;;;;4936889;29;20201;-74
2021/05/14 13:58:40;;;;;;;13.10;10.73;;;10.70;99.90;;;;;;4927397;29;20218;-74
2021/05/14 14:01:09;;;;;;;12.20;10.20;;;10.80;99.90;;;;;;4937191;29;20240;-74
2021/05/14 14:03:37;;;;;;;13.85;9.85;;;10.80;99.90;;;;;;4936046;29;20225;-74
2021/05/14 14:06:04;;;;;;;11.68;10.43;;;10.80;99.90;;;;;;4933905;29;20202;-73
2021/05/14 14:08:31;;;;;;;14.85;10.40;;;10.90;99.90;;;;;;4917029;29;20238;-73
2021/05/14 14:10:57;;;;;;;11.48;10.38;;;10.90;99.90;;;;;;4940588;29;20225;-74
2021/05/14 14:13:23;;;;;;;12.77;9.82;;;11.00;99.90;;;;;;4935164;29;20207;-74
2021/05/14 14:15:50;;;;;;;12.30;10.45;;;11.00;99.90;;;;;;4927782;29;20297;-74
2021/05/14 14:18:16;;;;;;;10.02;8.57;;;11.10;99.90;;;;;;4934339;29;20587;-74
2021/05/14 14:20:43;;;;;;;10.82;9.82;;;11.10;99.90;;;;;;4934838;29;20292;-73
2021/05/14 14:23:09;;;;;;;12.23;9.60;;;11.10;99.90;;;;;;4934981;29;20292;-72
2021/05/14 14:25:36;;;;;;;12.77;10.18;;;11.10;99.90;;;;;;4929948;29;20214;-73
2021/05/14 14:28:02;;;;;;;10.75;9.55;;;11.10;99.90;;;;;;4934568;29;20201;-72
2021/05/14 14:30:28;;;;;;;13.30;10.93;;;11.20;99.90;;;;;;4932010;29;20226;-72
2021/05/14 14:32:55;;;;;;;13.57;9.07;;;11.30;99.90;;;;;;4918033;29;20207;-72
2021/05/14 14:35:21;;;;;;;13.38;8.23;;;11.30;99.90;;;;;;4926544;29;20213;-73
2021/05/14 14:37:48;;;;;;;11.05;8.43;;;11.30;99.90;;;;;;4921840;29;20226;-72
2021/05/14 14:40:15;;;;;;;14.27;8.40;;;11.30;99.90;;;;;;4925216;29;20210;-73
2021/05/14 14:42:42;;;;;;;9.85;7.70;;;11.40;99.90;;;;;;4944961;29;20225;-73
2021/05/14 14:45:09;;;;;;;8.48;7.60;;;11.30;99.90;;;;;;4928336;29;20229;-72
2021/05/14 14:47:35;;;;;;;9.70;8.07;;;11.30;99.90;;;;;;4929108;29;20551;-73
2021/05/14 14:50:01;;;;;;;8.40;7.60;;;11.40;99.90;;;;;;4917018;29;20266;-72
2021/05/14 14:52:28;;;;;;;9.48;8.50;;;11.40;99.90;;;;;;4931470;29;20226;-73
2021/05/14 14:54:55;;;;;;;15.20;8.65;;;11.40;99.90;;;;;;4929081;29;20210;-73
2021/05/14 14:57:21;;;;;;;10.13;7.80;;;11.40;99.90;;;;;;4919034;29;20211;-73
2021/05/14 14:59:47;;;;;;;9.18;8.27;;;11.40;99.90;;;;;;4918354;29;20211;-73
2021/05/14 15:02:13;;;;;;;8.98;8.05;;;11.40;99.90;;;;;;4923525;29;20256;-73
2021/05/14 15:04:39;;;;;;;9.23;7.97;;;11.40;99.90;;;;;;4922488;29;20262;-72
2021/05/14 15:07:07;;;;;;;8.25;6.90;;;11.40;99.90;;;;;;4927948;29;20199;-73
2021/05/14 15:09:33;;;;;;;10.30;7.85;;;11.50;99.90;;;;;;4923185;29;20987;-73
2021/05/14 15:12:01;;;;;;;11.40;9.35;;;11.50;99.90;;;;;;4936839;29;20249;-72
2021/05/14 15:14:27;;;;;;;13.32;8.98;;;11.50;99.90;;;;;;4917916;29;20262;-73
2021/05/14 15:16:53;;;;;;;10.77;8.13;;;11.50;99.90;;;;;;4917106;29;20551;-73
2021/05/14 15:19:20;;;;;;;11.48;8.57;;;11.60;99.90;;;;;;4919882;29;20206;-73
2021/05/14 15:21:47;;;;;;;9.25;8.10;;;11.60;99.90;;;;;;4917268;29;20227;-72
2021/05/14 15:24:13;;;;;;;19.23;9.23;;;11.60;99.90;;;;;;4928032;29;20599;-72
2021/05/14 15:26:40;;;;;;;10.23;7.15;;;11.70;99.90;;;;;;4930661;29;20225;-72
2021/05/14 15:29:08;;;;;;;8.52;7.65;;;11.70;99.90;;;;;;4916312;29;20210;-73
2021/05/14 15:31:35;;;;;;;8.65;7.40;;;11.70;99.90;;;;;;4916749;29;20305;-72
2021/05/14 15:34:01;;;;;;;10.00;7.90;;;11.70;99.90;;;;;;4916556;29;20667;-72
2021/05/14 15:36:27;;;;;;;9.13;7.65;;;11.80;99.90;;;;;;4929438;29;20313;-73
2021/05/14 15:38:54;;;;;;;11.98;8.15;;;11.80;99.90;;;;;;4916819;29;20226;-72
2021/05/14 15:41:21;;;;;;;8.82;7.53;;;11.80;99.90;;;;;;4916079;29;20282;-72
2021/05/14 15:43:47;;;;;;;9.07;7.60;;;11.80;99.90;;;;;;4924439;29;20678;-73
2021/05/14 15:46:14;;;;;;;15.25;8.20;;;11.70;99.90;;;;;;4918192;29;20211;-73
2021/05/14 15:48:42;;;;;;;8.07;7.38;;;11.70;99.90;;;;;;4932743;29;20210;-73
2021/05/14 15:51:08;;;;;;;8.52;7.43;;;11.80;99.90;;;;;;4934051;29;20226;-73
2021/05/14 15:53:35;;;;;;;11.75;8.43;;;11.80;99.90;;;;;;4927297;29;20198;-72
2021/05/14 15:56:01;;;;;;;13.40;8.27;;;11.90;99.90;;;;;;4934475;29;20205;-72
2021/05/14 15:58:27;;;;;;;9.95;8.95;;;11.90;99.90;;;;;;4933687;29;20240;-73
2021/05/14 16:00:54;;;;;;;9.48;8.50;;;11.90;99.90;;;;;;4932567;29;20238;-73
2021/05/14 16:03:21;;;;;;;9.23;8.13;;;11.90;99.90;;;;;;4933177;29;20236;-73
2021/05/14 16:05:47;;;;;;;12.32;8.05;;;11.90;99.90;;;;;;4932672;29;20218;-73
2021/05/14 16:08:14;;;;;;;11.43;8.07;;;11.90;99.90;;;;;;4914900;29;20214;-73
2021/05/14 16:10:40;;;;;;;11.63;7.65;;;12.00;99.90;;;;;;4924698;29;20230;-73
2021/05/14 16:13:08;;;;;;;11.95;8.52;;;12.00;99.90;;;;;;4925135;29;20199;-74
2021/05/14 16:15:34;;;;;;;10.43;7.70;;;12.00;99.90;;;;;;4922417;29;20287;-74
2021/05/14 16:18:02;;;;;;;10.98;7.70;;;12.10;99.90;;;;;;4915830;29;20341;-74
2021/05/14 16:20:34;;;;;;;8.40;7.35;;;12.20;99.90;;;;;;4919160;29;20317;-73
2021/05/14 16:23:02;;;;;;;8.93;7.45;;;12.20;99.90;;;;;;4919064;29;20236;-70
2021/05/14 16:25:29;;;;;;;8.73;7.40;;;12.30;99.90;;;;;;4924760;29;20229;-71
2021/05/14 16:27:55;;;;;;;8.07;7.40;;;12.30;99.90;;;;;;4931632;29;20202;-71
2021/05/14 16:30:23;;;;;;;7.82;7.22;;;12.40;99.90;;;;;;4919720;29;20210;-71
2021/05/14 16:32:50;;;;;;;8.13;7.32;;;12.40;99.90;;;;;;4919523;29;20214;-70
2021/05/14 16:35:16;;;;;;;9.35;7.00;;;12.40;99.90;;;;;;4919527;29;20214;-70
2021/05/14 16:37:43;;;;;;;7.72;6.93;;;12.40;99.90;;;;;;4933631;29;20270;-73
2021/05/14 16:40:10;;;;;;;7.28;6.30;;;12.40;99.90;;;;;;4919850;29;20264;-74
2021/05/14 16:42:36;;;;;;;10.88;7.47;;;12.50;99.90;;;;;;4918886;29;20230;-75
2021/05/14 16:45:05;;;;;;;8.35;7.53;;;12.50;99.90;;;;;;4927226;29;20225;-75